Time;durP1;ratioP1;P1;durP2;ratioP2;P2;SDS_P1;SDS_P2;PMS_P1;PMS_P2;Temp;Humidity;BMP_temperature;BMP_pressure;BME280_temperature;BME280_humidity;BME280_pressure;Samples;Min_cycle;Max_cycle;Signal;HPM_P1;HPM_P2
2022/02/07 00:00:56;;;;;;;5.70;2.15;;;;;;;;;;5021890;28;20029;-72
2022/02/07 00:03:37;;;;;;;5.30;2.20;;;;;;;;;;5026140;28;20025;-74
2022/02/07 00:06:03;;;;;;;7.80;1.92;;;;;;;;;;5023979;28;20108;-74
2022/02/07 00:08:31;;;;;;;6.65;2.05;;;;;;;;;;5028219;28;20168;-72
2022/02/07 00:10:57;;;;;;;8.70;2.22;;;;;;;;;;5018131;28;20037;-72
2022/02/07 00:13:23;;;;;;;7.30;2.60;;;;;;;;;;5026551;28;20025;-73
2022/02/07 00:15:49;;;;;;;6.88;2.10;;;;;;;;;;5013098;28;20029;-72
2022/02/07 00:18:16;;;;;;;5.97;2.05;;;;;;;;;;5015333;28;20036;-73
2022/02/07 00:20:42;;;;;;;7.70;2.00;;;;;;;;;;5017550;28;20645;-74
2022/02/07 00:23:09;;;;;;;9.68;2.60;;;;;;;;;;5014690;28;20041;-73
2022/02/07 00:25:35;;;;;;;8.35;2.35;;;;;;;;;;5011930;28;20036;-73
2022/02/07 00:28:02;;;;;;;7.20;1.92;;;;;;;;;;5012852;28;20033;-73
2022/02/07 00:30:28;;;;;;;6.47;2.10;;;;;;;;;;5013627;28;20394;-73
2022/02/07 00:32:54;;;;;;;10.35;2.50;;;;;;;;;;5016621;28;20106;-72
2022/02/07 00:35:23;;;;;;;10.00;2.22;;;;;;;;;;5014157;28;20056;-74
2022/02/07 00:37:51;;;;;;;6.85;2.05;;;;;;;;;;5012588;28;20040;-72
2022/02/07 00:42:54;;;;;;;10.70;2.42;;;;;;;;;;5010732;28;20030;-74
2022/02/07 00:48:00;;;;;;;6.82;1.90;;;;;;;;;;5013361;28;20026;-74
2022/02/07 00:50:31;;;;;;;5.53;1.98;;;;;;;;;;5010502;28;20481;-72
2022/02/07 00:52:57;;;;;;;7.05;2.10;;;;;;;;;;5010545;28;20402;-73
2022/02/07 00:55:23;;;;;;;5.97;1.98;;;;;;;;;;5014034;28;20375;-74
2022/02/07 00:57:49;;;;;;;8.60;2.55;;;;;;;;;;5011015;28;20025;-71
2022/02/07 01:00:16;;;;;;;11.32;3.28;;;;;;;;;;5010655;28;20037;-74
2022/02/07 01:02:46;;;;;;;7.82;2.35;;;;;;;;;;5008360;28;20022;-73
2022/02/07 01:05:12;;;;;;;8.77;2.45;;;;;;;;;;5016723;28;20056;-73
2022/02/07 01:07:41;;;;;;;7.63;1.98;;;;;;;;;;5014320;28;20028;-73
2022/02/07 01:10:08;;;;;;;5.55;2.00;;;;;;;;;;5007281;28;20045;-73
2022/02/07 01:13:04;;;;;;;7.57;2.30;;;;;;;;;;5010157;28;20025;-73
2022/02/07 01:55:43;;;;;;;6.53;2.50;;;;;;;;;;5002295;28;20034;-71
2022/02/07 01:58:10;;;;;;;5.60;2.35;;;;;;;;;;4999244;28;20588;-71
2022/02/07 02:00:38;;;;;;;6.90;2.35;;;;;;;;;;5002465;28;20499;-72
2022/02/07 02:03:04;;;;;;;8.23;2.80;;;;;;;;;;5002265;28;20553;-71
2022/02/07 02:05:37;;;;;;;7.10;2.47;;;;;;;;;;5002364;28;20711;-72
2022/02/07 02:08:07;;;;;;;5.47;2.13;;;;;;;;;;5018899;28;20116;-72
2022/02/07 02:10:34;;;;;;;7.05;2.42;;;;;;;;;;5041414;28;20037;-71
2022/02/07 02:13:12;;;;;;;10.23;2.60;;;;;;;;;;5031305;28;20025;-71
2022/02/07 02:37:14;;;;;;;6.75;2.22;;;;;;;;;;5025037;28;20517;-71
2022/02/07 02:45:31;;;;;;;9.45;2.30;;;;;;;;;;5023620;28;20031;-72
2022/02/07 02:48:00;;;;;;;7.65;2.75;;;;;;;;;;5024725;28;20117;-71
2022/02/07 02:50:32;;;;;;;9.32;2.47;;;;;;;;;;5024838;28;20452;-72
2022/02/07 02:52:58;;;;;;;;;;;;;;;;;;5025215;28;20026;-72
2022/02/07 02:55:24;;;;;;;10.50;2.05;;;;;;;;;;5024470;28;20499;-71
2022/02/07 02:57:50;;;;;;;12.20;2.30;;;;;;;;;;5004651;28;20028;-72
2022/02/07 03:00:17;;;;;;;14.27;2.67;;;;;;;;;;5023517;28;20121;-71
2022/02/07 03:02:43;;;;;;;9.65;3.00;;;;;;;;;;5024722;28;20030;-71
2022/02/07 03:05:09;;;;;;;6.90;2.45;;;;;;;;;;5024716;28;20041;-71
2022/02/07 03:07:36;;;;;;;8.73;2.55;;;;;;;;;;5029156;28;20025;-73
2022/02/07 03:10:03;;;;;;;12.02;2.50;;;;;;;;;;5043360;28;20095;-71
2022/02/07 03:12:32;;;;;;;15.65;2.50;;;;;;;;;;5038899;28;20110;-73
2022/02/07 03:16:36;;;;;;;5.60;2.20;;;;;;;;;;5024184;28;20037;-71
2022/02/07 03:17:47;;;;;;;8.57;2.60;;;;;;;;;;5024575;28;20045;-71
2022/02/07 03:20:13;;;;;;;12.30;2.50;;;;;;;;;;5023219;28;20041;-72
2022/02/07 03:22:39;;;;;;;8.77;2.65;;;;;;;;;;5007278;28;20033;-73
2022/02/07 03:25:06;;;;;;;8.00;2.53;;;;;;;;;;5024551;28;20029;-72
2022/02/07 03:27:32;;;;;;;11.55;2.60;;;;;;;;;;5023715;28;20029;-71
2022/02/07 03:29:58;;;;;;;8.50;2.22;;;;;;;;;;5024711;28;20473;-71
2022/02/07 03:32:24;;;;;;;8.30;2.42;;;;;;;;;;5024309;28;20037;-72
2022/02/07 03:34:50;;;;;;;10.88;2.38;;;;;;;;;;5022958;28;20105;-74
2022/02/07 03:37:16;;;;;;;9.95;2.28;;;;;;;;;;5023905;28;20669;-72
2022/02/07 03:39:42;;;;;;;11.63;2.65;;;;;;;;;;5023318;28;20044;-72
2022/02/07 03:42:09;;;;;;;10.57;2.58;;;;;;;;;;5023849;28;20534;-72
2022/02/07 03:44:35;;;;;;;7.35;2.20;;;;;;;;;;5022707;28;20592;-71
2022/02/07 03:47:01;;;;;;;8.68;2.83;;;;;;;;;;5023720;28;20022;-71
2022/02/07 03:49:27;;;;;;;14.82;2.17;;;;;;;;;;5023851;28;20025;-72
2022/02/07 03:51:53;;;;;;;10.30;2.65;;;;;;;;;;5023744;28;20120;-71
2022/02/07 03:54:19;;;;;;;9.13;2.70;;;;;;;;;;5030261;28;20021;-73
2022/02/07 03:56:45;;;;;;;9.63;2.42;;;;;;;;;;5027192;28;20033;-72
2022/02/07 03:59:11;;;;;;;11.82;2.40;;;;;;;;;;5023588;28;20052;-73
2022/02/07 04:01:38;;;;;;;15.93;3.30;;;;;;;;;;5042903;28;20579;-71
2022/02/07 04:04:04;;;;;;;9.00;2.40;;;;;;;;;;5020979;28;20033;-71
2022/02/07 04:06:30;;;;;;;9.60;3.03;;;;;;;;;;5021420;28;20025;-73
2022/02/07 04:09:01;;;;;;;9.88;2.38;;;;;;;;;;5001356;28;20060;-73
2022/02/07 04:11:33;;;;;;;10.57;3.00;;;;;;;;;;5023585;28;20029;-72
2022/02/07 04:14:00;;;;;;;7.20;2.25;;;;;;;;;;5016316;28;20366;-71
2022/02/07 04:16:36;;;;;;;16.00;3.30;;;;;;;;;;5020998;28;20029;-73
2022/02/07 04:19:15;;;;;;;8.02;2.72;;;;;;;;;;5019093;28;20025;-71
2022/02/07 04:21:44;;;;;;;11.10;2.95;;;;;;;;;;5021125;28;20038;-71
2022/02/07 04:24:10;;;;;;;13.43;2.92;;;;;;;;;;5020683;28;20451;-71
2022/02/07 04:26:36;;;;;;;6.72;2.25;;;;;;;;;;5021839;28;20017;-74
2022/02/07 04:29:03;;;;;;;7.53;2.63;;;;;;;;;;5022616;28;20374;-71
2022/02/07 04:31:29;;;;;;;9.93;2.47;;;;;;;;;;5021807;28;20049;-72
2022/02/07 04:33:55;;;;;;;9.32;2.72;;;;;;;;;;5022633;28;20643;-71
2022/02/07 04:36:22;;;;;;;14.23;3.22;;;;;;;;;;5022873;28;20485;-72
2022/02/07 04:38:48;;;;;;;7.43;2.80;;;;;;;;;;5022341;28;20829;-71
2022/02/07 04:41:14;;;;;;;10.98;2.83;;;;;;;;;;5021121;28;20021;-72
2022/02/07 04:43:48;;;;;;;9.32;2.90;;;;;;;;;;5022943;28;20094;-71
2022/02/07 04:59:26;;;;;;;12.25;3.35;;;;;;;;;;5022329;28;20038;-71
2022/02/07 05:01:56;;;;;;;10.68;3.25;;;;;;;;;;5022698;28;20029;-71
2022/02/07 05:04:31;;;;;;;13.55;3.40;;;;;;;;;;5022648;28;20039;-71
2022/02/07 05:15:12;;;;;;;9.13;2.53;;;;;;;;;;5022219;28;20071;-73
2022/02/07 05:17:39;;;;;;;7.95;2.45;;;;;;;;;;5022060;28;20028;-73
2022/02/07 05:20:06;;;;;;;8.57;2.58;;;;;;;;;;5020961;28;20021;-70
2022/02/07 05:22:32;;;;;;;11.38;3.00;;;;;;;;;;5022400;28;20059;-73
2022/02/07 05:24:59;;;;;;;9.25;2.60;;;;;;;;;;5022355;28;20097;-73
2022/02/07 05:27:25;;;;;;;9.23;2.80;;;;;;;;;;4986604;28;20091;-75
2022/02/07 05:29:51;;;;;;;9.85;2.88;;;;;;;;;;5009369;28;20197;-72
2022/02/07 05:32:18;;;;;;;4.63;2.40;;;;;;;;;;5020351;28;20044;-74
2022/02/07 05:34:44;;;;;;;7.57;2.53;;;;;;;;;;5020125;28;20053;-73
2022/02/07 05:37:13;;;;;;;9.77;3.20;;;;;;;;;;5020061;28;20087;-73
2022/02/07 05:39:40;;;;;;;10.75;3.33;;;;;;;;;;5018132;28;20029;-73
2022/02/07 05:42:07;;;;;;;6.70;2.80;;;;;;;;;;5019559;28;20505;-74
2022/02/07 05:44:34;;;;;;;11.57;3.50;;;;;;;;;;5019655;28;20037;-73
2022/02/07 05:47:01;;;;;;;7.15;2.60;;;;;;;;;;5020010;28;20034;-73
2022/02/07 05:49:27;;;;;;;8.68;2.72;;;;;;;;;;5018636;28;20066;-73
2022/02/07 05:51:56;;;;;;;9.55;3.80;;;;;;;;;;5022395;28;20029;-72
2022/02/07 05:54:22;;;;;;;10.77;3.25;;;;;;;;;;5023905;28;20026;-73
2022/02/07 05:56:49;;;;;;;8.30;3.13;;;;;;;;;;5024039;28;20025;-73
2022/02/07 05:59:15;;;;;;;8.10;2.65;;;;;;;;;;5019827;28;20030;-73
2022/02/07 06:01:41;;;;;;;6.57;2.60;;;;;;;;;;5023520;28;20022;-73
2022/02/07 06:04:07;;;;;;;9.15;2.60;;;;;;;;;;5023256;28;20041;-73
2022/02/07 06:06:33;;;;;;;11.15;2.38;;;;;;;;;;5023490;28;20046;-73
2022/02/07 06:08:59;;;;;;;9.77;2.42;;;;;;;;;;5023591;28;20608;-73
2022/02/07 06:11:25;;;;;;;6.90;2.65;;;;;;;;;;5023298;28;20176;-72
2022/02/07 06:13:51;;;;;;;8.82;2.38;;;;;;;;;;5021317;28;20662;-73
2022/02/07 06:16:18;;;;;;;8.80;2.90;;;;;;;;;;5023579;28;20029;-73
2022/02/07 06:18:48;;;;;;;6.43;2.60;;;;;;;;;;5023502;28;20079;-73
2022/02/07 06:21:14;;;;;;;6.88;2.15;;;;;;;;;;5022962;28;20045;-74
2022/02/07 06:23:41;;;;;;;6.32;2.22;;;;;;;;;;5022855;28;20037;-73
2022/02/07 06:26:07;;;;;;;6.15;2.40;;;;;;;;;;5027276;28;20021;-73
2022/02/07 06:28:33;;;;;;;6.93;2.30;;;;;;;;;;5039127;28;20051;-73
2022/02/07 06:30:59;;;;;;;6.78;2.47;;;;;;;;;;5022662;28;20049;-73
2022/02/07 06:33:25;;;;;;;9.38;2.45;;;;;;;;;;5022484;28;20634;-73
2022/02/07 06:35:53;;;;;;;10.18;2.70;;;;;;;;;;5022826;28;20029;-73
2022/02/07 06:38:19;;;;;;;10.18;3.08;;;;;;;;;;5021272;28;20269;-72
2022/02/07 06:40:45;;;;;;;5.72;2.58;;;;;;;;;;5022504;28;20026;-73
2022/02/07 06:43:12;;;;;;;7.82;3.00;;;;;;;;;;5022842;28;20160;-73
2022/02/07 06:45:38;;;;;;;13.25;3.08;;;;;;;;;;5022687;28;20028;-74
2022/02/07 06:48:04;;;;;;;9.20;2.85;;;;;;;;;;5022479;28;20017;-72
2022/02/07 06:50:30;;;;;;;9.55;3.00;;;;;;;;;;5020371;28;20436;-72
2022/02/07 06:52:56;;;;;;;9.32;3.00;;;;;;;;;;5022606;28;20037;-73
2022/02/07 06:55:22;;;;;;;8.00;3.13;;;;;;;;;;5022425;28;20432;-72
2022/02/07 06:57:49;;;;;;;4.85;2.20;;;;;;;;;;5020491;28;20025;-72
2022/02/07 07:00:15;;;;;;;6.47;2.65;;;;;;;;;;5018623;28;20037;-72
2022/02/07 07:02:43;;;;;;;8.68;2.45;;;;;;;;;;5001895;28;20287;-72
2022/02/07 07:05:13;;;;;;;17.33;4.10;;;;;;;;;;5002889;28;20393;-74
2022/02/07 07:07:39;;;;;;;8.48;3.20;;;;;;;;;;5002008;28;20034;-72
2022/02/07 07:10:07;;;;;;;11.10;2.72;;;;;;;;;;5001338;28;20046;-72
2022/02/07 07:12:33;;;;;;;6.88;2.70;;;;;;;;;;5003109;28;20026;-72
2022/02/07 07:15:14;;;;;;;13.93;2.97;;;;;;;;;;5001919;28;20545;-72
2022/02/07 07:17:40;;;;;;;8.68;3.53;;;;;;;;;;5002647;28;20026;-72
2022/02/07 07:20:08;;;;;;;9.70;3.55;;;;;;;;;;5009398;28;20029;-73
2022/02/07 07:22:34;;;;;;;7.68;2.42;;;;;;;;;;5020728;28;20071;-73
2022/02/07 07:25:01;;;;;;;11.43;2.05;;;;;;;;;;5022336;28;20025;-72
2022/02/07 07:27:32;;;;;;;7.43;1.85;;;;;;;;;;5027771;28;20033;-72
2022/02/07 07:29:58;;;;;;;13.07;2.17;;;;;;;;;;5020385;28;20079;-72
2022/02/07 07:32:28;;;;;;;7.88;1.88;;;;;;;;;;5022251;28;20056;-72
2022/02/07 07:34:55;;;;;;;13.00;3.13;;;;;;;;;;5021469;28;20092;-73
2022/02/07 07:37:21;;;;;;;8.48;2.35;;;;;;;;;;5022095;28;20030;-72
2022/02/07 07:39:48;;;;;;;11.27;2.60;;;;;;;;;;5021886;28;20025;-73
2022/02/07 07:42:15;;;;;;;8.45;2.53;;;;;;;;;;5021905;28;20099;-72
2022/02/07 07:44:42;;;;;;;11.43;2.53;;;;;;;;;;5020052;28;20140;-72
2022/02/07 07:47:16;;;;;;;10.80;3.45;;;;;;;;;;5021915;28;20061;-72
2022/02/07 07:49:48;;;;;;;12.38;2.50;;;;;;;;;;5020678;28;20195;-74
2022/02/07 07:52:18;;;;;;;9.27;2.70;;;;;;;;;;5021793;28;20068;-74
2022/02/07 07:55:19;;;;;;;8.93;2.40;;;;;;;;;;5020503;28;20076;-73
2022/02/07 08:03:09;;;;;;;7.80;2.42;;;;;;;;;;5019244;28;20064;-72
2022/02/07 08:05:48;;;;;;;12.43;3.00;;;;;;;;;;5021179;28;20029;-72
2022/02/07 08:08:33;;;;;;;10.57;3.00;;;;;;;;;;5021286;28;20087;-72
2022/02/07 08:13:29;;;;;;;14.20;2.60;;;;;;;;;;5020859;28;20575;-73
2022/02/07 08:15:55;;;;;;;11.85;3.22;;;;;;;;;;5019870;28;20041;-74
2022/02/07 08:18:22;;;;;;;12.45;3.25;;;;;;;;;;5003019;28;20514;-72
2022/02/07 08:20:48;;;;;;;13.13;3.10;;;;;;;;;;5019507;28;20815;-72
2022/02/07 08:23:14;;;;;;;13.07;3.58;;;;;;;;;;5019720;28;20033;-73
2022/02/07 08:25:40;;;;;;;10.52;2.92;;;;;;;;;;5004272;28;20087;-72
2022/02/07 08:28:06;;;;;;;8.43;2.90;;;;;;;;;;5034992;28;20029;-71
2022/02/07 08:30:33;;;;;;;10.70;3.75;;;;;;;;;;5026108;28;20380;-72
2022/02/07 08:33:00;;;;;;;11.27;3.30;;;;;;;;;;5019281;28;20056;-73
2022/02/07 08:35:27;;;;;;;8.50;3.15;;;;;;;;;;5016942;28;20053;-72
2022/02/07 08:37:53;;;;;;;11.18;2.78;;;;;;;;;;5015806;28;20033;-72
2022/02/07 08:40:20;;;;;;;10.80;3.30;;;;;;;;;;5000326;28;20096;-73
2022/02/07 08:42:46;;;;;;;15.45;3.42;;;;;;;;;;5017193;28;20095;-72
2022/02/07 08:45:14;;;;;;;12.50;3.88;;;;;;;;;;5018812;28;20033;-71
2022/02/07 08:47:42;;;;;;;11.52;3.10;;;;;;;;;;5016350;28;20022;-73
2022/02/07 08:50:08;;;;;;;7.88;3.53;;;;;;;;;;5019193;28;20120;-72
2022/02/07 08:52:35;;;;;;;15.13;3.58;;;;;;;;;;5014983;28;20088;-72
2022/02/07 08:55:02;;;;;;;16.05;3.90;;;;;;;;;;5015526;28;20385;-71
2022/02/07 08:57:36;;;;;;;13.63;3.67;;;;;;;;;;5017225;28;20034;-72
2022/02/07 09:08:05;;;;;;;15.18;3.83;;;;;;;;;;4985172;28;20365;-71
2022/02/07 09:10:31;;;;;;;10.00;2.95;;;;;;;;;;4994845;28;20436;-72
2022/02/07 09:12:57;;;;;;;12.48;3.85;;;;;;;;;;5018675;28;20025;-72
2022/02/07 09:15:33;;;;;;;13.48;3.90;;;;;;;;;;5019006;28;20034;-72
2022/02/07 09:18:04;;;;;;;18.15;4.28;;;;;;;;;;5000877;28;20033;-72
2022/02/07 09:20:30;;;;;;;14.25;3.00;;;;;;;;;;5018696;28;20025;-72
2022/02/07 09:22:57;;;;;;;9.25;3.20;;;;;;;;;;5016621;28;20197;-72
2022/02/07 09:25:23;;;;;;;17.88;3.17;;;;;;;;;;5018336;28;20087;-72
2022/02/07 09:27:49;;;;;;;10.80;2.92;;;;;;;;;;5022259;28;20052;-73
2022/02/07 09:30:15;;;;;;;13.80;3.05;;;;;;;;;;5018298;28;20077;-72
2022/02/07 09:32:42;;;;;;;11.65;2.83;;;;;;;;;;5018576;28;20664;-71
2022/02/07 09:35:09;;;;;;;14.48;3.80;;;;;;;;;;5016888;28;20053;-71
2022/02/07 09:37:35;;;;;;;12.95;2.92;;;;;;;;;;5018548;28;20040;-72
2022/02/07 09:40:01;;;;;;;18.70;3.70;;;;;;;;;;5019149;28;20040;-71
2022/02/07 09:42:28;;;;;;;17.27;3.42;;;;;;;;;;5018302;28;20045;-74
2022/02/07 09:45:05;;;;;;;10.07;2.63;;;;;;;;;;5015276;28;20022;-72
2022/02/07 09:47:32;;;;;;;12.07;3.30;;;;;;;;;;5017865;28;20068;-72
2022/02/07 09:49:58;;;;;;;13.77;3.25;;;;;;;;;;5018439;28;20033;-72
2022/02/07 09:52:24;;;;;;;11.55;3.58;;;;;;;;;;5018719;28;20030;-72
2022/02/07 09:54:51;;;;;;;10.98;3.20;;;;;;;;;;5017439;28;20533;-72
2022/02/07 09:57:20;;;;;;;13.30;3.85;;;;;;;;;;5017616;28;20029;-71
2022/02/07 09:59:49;;;;;;;12.80;3.58;;;;;;;;;;5019405;28;20520;-72
2022/02/07 10:02:43;;;;;;;17.90;4.05;;;;;;;;;;5018571;28;20033;-72
2022/02/07 10:05:16;;;;;;;18.70;3.58;;;;;;;;;;5000819;28;20075;-72
2022/02/07 10:08:16;;;;;;;16.88;4.18;;;;;;;;;;5019216;28;20512;-72
2022/02/07 10:10:51;;;;;;;12.77;3.80;;;;;;;;;;5017849;28;20136;-72
2022/02/07 10:18:34;;;;;;;15.30;3.97;;;;;;;;;;5013618;28;20041;-72
2022/02/07 10:45:33;;;;;;;12.60;2.88;;;;;;;;;;5022516;28;20046;-71
2022/02/07 10:48:04;;;;;;;15.43;3.97;;;;;;;;;;5021876;28;20039;-71
2022/02/07 10:50:30;;;;;;;11.40;2.90;;;;;;;;;;5020264;28;20025;-72
2022/02/07 10:52:57;;;;;;;9.82;3.03;;;;;;;;;;5019281;28;20472;-71
2022/02/07 10:55:23;;;;;;;19.23;3.13;;;;;;;;;;5019877;28;20036;-71
2022/02/07 10:57:51;;;;;;;7.50;2.60;;;;;;;;;;5019680;28;20047;-71
2022/02/07 11:00:21;;;;;;;13.63;3.28;;;;;;;;;;5016897;28;20408;-71
2022/02/07 11:03:12;;;;;;;18.52;3.85;;;;;;;;;;5021548;28;20032;-71
2022/02/07 11:05:41;;;;;;;14.20;4.03;;;;;;;;;;5021182;28;20563;-71
2022/02/07 11:08:22;;;;;;;19.45;2.88;;;;;;;;;;5019111;28;20061;-71
2022/02/07 11:16:24;;;;;;;14.70;3.45;;;;;;;;;;5021410;28;20053;-71
2022/02/07 11:21:47;;;;;;;10.98;2.88;;;;;;;;;;5021112;28;20037;-71
2022/02/07 11:27:15;;;;;;;18.42;4.18;;;;;;;;;;5022802;28;20037;-72
2022/02/07 11:29:49;;;;;;;14.68;3.45;;;;;;;;;;5015791;28;20032;-72
2022/02/07 11:32:46;;;;;;;12.38;3.25;;;;;;;;;;5017104;28;20120;-72
2022/02/07 11:35:19;;;;;;;10.68;2.50;;;;;;;;;;5001711;28;20607;-72
2022/02/07 11:38:10;;;;;;;12.93;3.28;;;;;;;;;;5019331;28;20056;-72
2022/02/07 11:40:37;;;;;;;12.15;2.92;;;;;;;;;;5015764;28;20497;-71
2022/02/07 11:43:08;;;;;;;10.63;2.95;;;;;;;;;;5020881;28;20042;-71
2022/02/07 11:45:50;;;;;;;14.80;3.40;;;;;;;;;;5020742;28;20153;-71
2022/02/07 11:48:19;;;;;;;11.23;2.88;;;;;;;;;;5018541;28;20132;-71
2022/02/07 11:50:46;;;;;;;12.88;3.58;;;;;;;;;;5018987;28;20152;-71
2022/02/07 11:53:15;;;;;;;16.17;2.80;;;;;;;;;;5019871;28;20025;-71
2022/02/07 11:55:43;;;;;;;11.75;2.17;;;;;;;;;;5000978;28;20055;-71
2022/02/07 11:58:15;;;;;;;15.52;3.42;;;;;;;;;;5005422;28;20180;-72
2022/02/07 12:00:47;;;;;;;12.10;2.25;;;;;;;;;;5003120;28;20393;-71
2022/02/07 12:03:13;;;;;;;;;;;;;;;;;;5017204;28;20033;-70
2022/02/07 12:05:50;;;;;;;17.25;3.15;;;;;;;;;;5019254;28;19908;-70
2022/02/07 12:08:16;;;;;;;19.10;3.28;;;;;;;;;;5011551;28;20044;-70
2022/02/07 12:10:47;;;;;;;13.80;2.65;;;;;;;;;;5017312;28;20084;-70
2022/02/07 12:13:28;;;;;;;13.73;2.90;;;;;;;;;;5020230;28;20025;-70
2022/02/07 12:15:56;;;;;;;11.18;2.72;;;;;;;;;;5021230;28;20417;-71
2022/02/07 12:18:24;;;;;;;16.08;2.60;;;;;;;;;;5021722;28;20111;-71
2022/02/07 12:20:52;;;;;;;15.57;2.78;;;;;;;;;;5017382;28;20151;-70
2022/02/07 12:23:19;;;;;;;14.23;2.80;;;;;;;;;;5019042;28;20033;-73
2022/02/07 12:25:48;;;;;;;15.20;2.80;;;;;;;;;;5020518;28;20036;-72
2022/02/07 12:31:02;;;;;;;19.02;3.33;;;;;;;;;;5013902;28;20045;-72
2022/02/07 12:33:29;;;;;;;17.48;3.72;;;;;;;;;;5019594;28;20393;-72
2022/02/07 12:36:00;;;;;;;11.40;3.30;;;;;;;;;;5020415;28;20405;-72
2022/02/07 12:38:28;;;;;;;14.05;2.95;;;;;;;;;;5018161;28;20021;-72
2022/02/07 12:40:55;;;;;;;18.88;3.95;;;;;;;;;;4998666;28;20533;-71
2022/02/07 12:43:22;;;;;;;11.68;3.70;;;;;;;;;;5019320;28;20033;-71
2022/02/07 12:45:49;;;;;;;14.45;3.85;;;;;;;;;;5019816;28;20029;-71
2022/02/07 12:48:20;;;;;;;17.27;4.05;;;;;;;;;;5019289;28;20030;-71
2022/02/07 12:50:52;;;;;;;18.60;3.80;;;;;;;;;;5017462;28;20076;-71
2022/02/07 12:53:18;;;;;;;13.50;3.33;;;;;;;;;;5001673;28;20519;-72
2022/02/07 12:55:45;;;;;;;21.55;6.75;;;;;;;;;;5019170;28;20024;-71
2022/02/07 12:58:13;;;;;;;22.77;4.50;;;;;;;;;;5017971;28;20683;-71
2022/02/07 13:00:39;;;;;;;16.45;3.83;;;;;;;;;;5017854;28;20035;-71
2022/02/07 13:03:05;;;;;;;19.67;5.10;;;;;;;;;;5019490;28;20029;-71
2022/02/07 13:05:33;;;;;;;23.33;4.43;;;;;;;;;;5019982;28;20151;-71
2022/02/07 13:08:02;;;;;;;19.13;4.13;;;;;;;;;;5020275;28;20262;-70
2022/02/07 13:10:34;;;;;;;12.65;3.67;;;;;;;;;;5018399;28;20064;-71
2022/02/07 13:15:30;;;;;;;17.83;3.70;;;;;;;;;;5019152;28;20045;-71
2022/02/07 13:18:04;;;;;;;13.43;3.03;;;;;;;;;;5018153;28;20063;-71
2022/02/07 13:20:30;;;;;;;24.50;4.82;;;;;;;;;;5019922;28;20328;-71
2022/02/07 13:23:03;;;;;;;16.17;3.95;;;;;;;;;;5019327;28;20489;-71
2022/02/07 13:25:38;;;;;;;19.13;4.40;;;;;;;;;;5020099;28;20104;-71
2022/02/07 13:28:05;;;;;;;17.88;3.55;;;;;;;;;;5039705;28;20040;-71
2022/02/07 13:30:31;;;;;;;24.48;4.15;;;;;;;;;;5039353;28;20037;-71
2022/02/07 13:32:57;;;;;;;22.45;4.60;;;;;;;;;;5037803;28;20408;-71
2022/02/07 13:35:23;;;;;;;21.73;4.47;;;;;;;;;;5039008;28;20601;-71
2022/02/07 13:37:49;;;;;;;26.73;5.07;;;;;;;;;;5038622;28;20025;-71
2022/02/07 13:40:21;;;;;;;21.45;4.45;;;;;;;;;;5039503;28;20047;-71
2022/02/07 13:42:51;;;;;;;21.98;4.70;;;;;;;;;;5039373;28;20025;-71
2022/02/07 13:45:17;;;;;;;19.00;4.50;;;;;;;;;;5037867;28;20112;-71
2022/02/07 13:47:45;;;;;;;27.65;5.22;;;;;;;;;;5028809;28;20069;-70
2022/02/07 13:50:13;;;;;;;26.45;4.90;;;;;;;;;;5018966;28;20033;-71
2022/02/07 13:52:40;;;;;;;29.10;4.72;;;;;;;;;;5019030;28;20398;-71
2022/02/07 13:55:09;;;;;;;29.23;6.25;;;;;;;;;;5017446;28;20477;-71
2022/02/07 13:57:36;;;;;;;22.90;6.28;;;;;;;;;;5017201;28;20435;-71
2022/02/07 14:00:13;;;;;;;22.98;4.68;;;;;;;;;;5001464;28;20030;-71
2022/02/07 14:02:39;;;;;;;16.95;5.05;;;;;;;;;;5018878;28;20662;-71
2022/02/07 14:05:05;;;;;;;24.17;5.10;;;;;;;;;;5016987;28;20025;-71
2022/02/07 14:07:33;;;;;;;18.58;4.32;;;;;;;;;;5018321;28;20067;-71
2022/02/07 14:09:59;;;;;;;21.98;4.28;;;;;;;;;;5019105;28;20033;-71
2022/02/07 14:12:25;;;;;;;27.60;5.63;;;;;;;;;;5017351;28;20059;-71
2022/02/07 14:14:52;;;;;;;14.70;4.72;;;;;;;;;;5012685;28;20025;-71
2022/02/07 14:17:18;;;;;;;36.88;5.68;;;;;;;;;;5002869;28;20394;-71
2022/02/07 14:19:49;;;;;;;23.65;4.80;;;;;;;;;;5002960;28;20021;-71
2022/02/07 14:22:16;;;;;;;28.30;5.78;;;;;;;;;;5003126;28;20037;-71
2022/02/07 14:24:42;;;;;;;27.63;4.80;;;;;;;;;;5002971;28;20061;-71
2022/02/07 14:27:09;;;;;;;28.40;5.50;;;;;;;;;;5017737;28;20059;-71
2022/02/07 14:29:35;;;;;;;22.15;4.50;;;;;;;;;;5008934;28;20029;-71
2022/02/07 14:32:02;;;;;;;18.65;5.88;;;;;;;;;;5020100;28;20021;-71
2022/02/07 14:34:28;;;;;;;24.02;5.72;;;;;;;;;;5032207;28;20448;-71
2022/02/07 14:36:54;;;;;;;20.23;5.43;;;;;;;;;;5022091;28;20032;-71
2022/02/07 14:39:20;;;;;;;25.98;5.50;;;;;;;;;;5009818;28;20046;-71
2022/02/07 14:41:48;;;;;;;26.52;4.80;;;;;;;;;;5002427;28;20160;-71
2022/02/07 14:44:27;;;;;;;19.95;4.28;;;;;;;;;;5002602;28;20030;-70
2022/02/07 14:47:04;;;;;;;26.35;5.78;;;;;;;;;;5003241;28;20026;-71
2022/02/07 14:49:30;;;;;;;26.35;4.97;;;;;;;;;;5001814;28;20037;-71
2022/02/07 14:51:59;;;;;;;22.65;5.57;;;;;;;;;;5041336;28;20047;-71
2022/02/07 14:54:26;;;;;;;16.95;5.65;;;;;;;;;;5042052;28;20719;-71
2022/02/07 14:56:52;;;;;;;25.02;5.65;;;;;;;;;;5041893;28;20025;-71
2022/02/07 14:59:20;;;;;;;20.83;5.80;;;;;;;;;;5031570;28;20025;-71
2022/02/07 15:01:47;;;;;;;19.73;5.28;;;;;;;;;;5003860;28;20862;-71
2022/02/07 15:04:13;;;;;;;19.33;4.38;;;;;;;;;;5002325;28;20037;-71
2022/02/07 15:06:39;;;;;;;24.67;5.82;;;;;;;;;;5002172;28;20036;-70
2022/02/07 15:09:06;;;;;;;25.10;5.07;;;;;;;;;;5002343;28;20033;-71
2022/02/07 15:11:32;;;;;;;29.58;4.93;;;;;;;;;;4984753;28;20041;-71
2022/02/07 15:13:58;;;;;;;21.65;5.05;;;;;;;;;;5000263;28;20032;-71
2022/02/07 15:16:24;;;;;;;28.85;5.13;;;;;;;;;;5002246;28;20135;-71
2022/02/07 15:18:50;;;;;;;25.17;4.80;;;;;;;;;;5002193;28;20105;-71
2022/02/07 15:21:16;;;;;;;22.55;6.25;;;;;;;;;;5005669;28;20040;-70
2022/02/07 15:23:43;;;;;;;20.35;5.57;;;;;;;;;;5019624;28;20033;-70
2022/02/07 15:26:09;;;;;;;16.02;5.57;;;;;;;;;;5022105;28;20037;-71
2022/02/07 15:28:35;;;;;;;21.20;6.20;;;;;;;;;;5041722;28;20025;-71
2022/02/07 15:31:03;;;;;;;21.15;5.85;;;;;;;;;;5025977;28;20034;-71
2022/02/07 15:33:34;;;;;;;23.67;5.70;;;;;;;;;;5021232;28;20027;-71
2022/02/07 15:36:01;;;;;;;25.98;8.13;;;;;;;;;;5020839;28;20498;-71
2022/02/07 15:38:28;;;;;;;24.35;5.88;;;;;;;;;;5019594;28;20026;-71
2022/02/07 15:40:54;;;;;;;21.05;5.60;;;;;;;;;;5021516;28;20051;-71
2022/02/07 15:43:20;;;;;;;23.40;5.97;;;;;;;;;;5021106;28;20036;-71
2022/02/07 15:45:47;;;;;;;15.95;5.22;;;;;;;;;;5021391;28;20022;-71
2022/02/07 15:48:14;;;;;;;23.50;4.95;;;;;;;;;;5021477;28;20108;-71
2022/02/07 15:50:40;;;;;;;26.23;5.47;;;;;;;;;;5018054;28;20583;-71
2022/02/07 15:53:07;;;;;;;24.88;5.60;;;;;;;;;;5020616;28;20025;-71
2022/02/07 15:55:34;;;;;;;20.95;5.60;;;;;;;;;;5021831;28;20526;-71
2022/02/07 15:58:00;;;;;;;21.58;5.45;;;;;;;;;;5018832;28;20037;-71
2022/02/07 16:00:26;;;;;;;29.52;6.85;;;;;;;;;;5020370;28;20036;-70
2022/02/07 16:02:54;;;;;;;17.63;4.40;;;;;;;;;;5018921;28;20186;-70
2022/02/07 16:05:20;;;;;;;23.98;4.60;;;;;;;;;;5021207;28;20036;-70
2022/02/07 16:07:48;;;;;;;18.60;4.55;;;;;;;;;;5020744;28;20033;-70
2022/02/07 16:10:14;;;;;;;24.40;5.30;;;;;;;;;;5021022;28;20124;-70
2022/02/07 16:12:43;;;;;;;22.90;5.47;;;;;;;;;;5019191;28;20052;-70
2022/02/07 16:15:10;;;;;;;18.88;5.28;;;;;;;;;;5020577;28;20029;-70
2022/02/07 16:17:36;;;;;;;16.75;4.97;;;;;;;;;;5021048;28;20683;-70
2022/02/07 16:20:02;;;;;;;19.70;4.70;;;;;;;;;;5019283;28;20064;-70
2022/02/07 16:22:28;;;;;;;21.17;5.20;;;;;;;;;;5020224;28;20563;-70
2022/02/07 16:24:54;;;;;;;20.98;5.20;;;;;;;;;;5020494;28;20037;-70
2022/02/07 16:27:20;;;;;;;20.52;5.13;;;;;;;;;;5025213;28;20027;-72
2022/02/07 16:29:47;;;;;;;24.90;4.70;;;;;;;;;;5020319;28;20017;-71
2022/02/07 16:32:13;;;;;;;19.58;5.82;;;;;;;;;;5016566;28;20378;-71
2022/02/07 16:34:40;;;;;;;20.23;5.10;;;;;;;;;;5012960;28;20627;-71
2022/02/07 16:37:07;;;;;;;22.42;5.32;;;;;;;;;;5019427;28;20148;-70
2022/02/07 16:39:33;;;;;;;21.67;4.65;;;;;;;;;;5019025;28;20486;-71
2022/02/07 16:42:00;;;;;;;19.73;4.45;;;;;;;;;;5001346;28;20739;-71
2022/02/07 16:44:26;;;;;;;32.80;5.65;;;;;;;;;;5013290;28;20041;-70
2022/02/07 16:46:53;;;;;;;21.10;5.20;;;;;;;;;;5020001;28;20236;-71
2022/02/07 16:49:19;;;;;;;23.40;4.95;;;;;;;;;;5012012;28;20022;-71
2022/02/07 16:51:47;;;;;;;26.27;6.10;;;;;;;;;;5018572;28;20037;-71
2022/02/07 16:54:13;;;;;;;19.05;4.57;;;;;;;;;;5014729;28;20359;-71
2022/02/07 16:56:40;;;;;;;20.80;5.65;;;;;;;;;;5000977;28;20045;-72
2022/02/07 16:59:07;;;;;;;23.60;5.03;;;;;;;;;;5017376;28;20881;-71
2022/02/07 17:01:33;;;;;;;23.90;4.97;;;;;;;;;;5018883;28;20031;-72
2022/02/07 17:04:00;;;;;;;25.95;5.13;;;;;;;;;;5004794;28;20036;-71
2022/02/07 17:06:27;;;;;;;22.38;4.57;;;;;;;;;;5019399;28;20058;-71
2022/02/07 17:08:53;;;;;;;25.40;5.35;;;;;;;;;;5019883;28;20025;-71
2022/02/07 17:11:21;;;;;;;19.50;4.50;;;;;;;;;;5018484;28;20061;-71
2022/02/07 17:13:48;;;;;;;28.08;4.90;;;;;;;;;;4999921;28;20033;-72
2022/02/07 17:16:14;;;;;;;25.38;4.75;;;;;;;;;;5019246;28;20985;-71
2022/02/07 17:18:41;;;;;;;18.70;4.30;;;;;;;;;;5020093;28;20034;-70